Time;durP1;ratioP1;P1;durP2;ratioP2;P2;SDS_P1;SDS_P2;PMS_P1;PMS_P2;Temp;Humidity;BMP_temperature;BMP_pressure;BME280_temperature;BME280_humidity;BME280_pressure;Samples;Min_cycle;Max_cycle;Signal;HPM_P1;HPM_P2
2022/05/04 00:01:53;;;;;;;;;;;8.40;99.90;;;;;;5038615;28;19947;-78
2022/05/04 00:04:20;;;;;;;;;;;8.40;99.90;;;;;;5033116;28;20296;-78
2022/05/04 00:06:46;;;;;;;;;;;8.40;99.90;;;;;;5051777;28;19924;-79
2022/05/04 00:09:13;;;;;;;;;;;8.30;99.90;;;;;;5028368;28;19925;-79
2022/05/04 00:11:41;;;;;;;;;;;8.30;99.90;;;;;;5040977;28;19935;-78
2022/05/04 00:14:08;;;;;;;;;;;8.30;99.90;;;;;;5031911;28;20419;-79
2022/05/04 00:16:34;;;;;;;;;;;8.20;99.90;;;;;;5049567;28;19932;-78
2022/05/04 00:19:01;;;;;;;;;;;8.20;99.90;;;;;;5024734;28;19936;-79
2022/05/04 00:21:27;;;;;;;;;;;8.20;99.90;;;;;;5032907;28;19925;-79
2022/05/04 00:23:54;;;;;;;;;;;8.20;99.90;;;;;;5044328;28;19973;-78
2022/05/04 00:26:20;;;;;;;;;;;8.20;99.90;;;;;;5029881;28;19931;-79
2022/05/04 00:28:47;;;;;;;;;;;8.30;99.90;;;;;;5048041;28;19940;-78
2022/05/04 00:31:13;;;;;;;;;;;8.20;99.90;;;;;;5043137;28;19925;-79
2022/05/04 00:33:40;;;;;;;;;;;8.20;99.90;;;;;;5052289;28;19925;-78
2022/05/04 00:36:06;;;;;;;;;;;8.30;99.90;;;;;;5027338;28;20035;-79
2022/05/04 00:38:33;;;;;;;;;;;8.30;99.90;;;;;;5051284;28;19933;-78
2022/05/04 00:40:59;;;;;;;;;;;8.20;99.90;;;;;;5050931;28;19925;-78
2022/05/04 00:43:26;;;;;;;;;;;8.20;99.90;;;;;;5033069;28;20386;-78
2022/05/04 00:45:53;;;;;;;;;;;8.20;99.90;;;;;;5032808;28;20027;-77
2022/05/04 00:48:19;;;;;;;;;;;8.10;99.90;;;;;;5033554;28;19932;-79
2022/05/04 00:50:46;;;;;;;;;;;8.10;99.90;;;;;;5052089;28;19925;-78
2022/05/04 00:53:12;;;;;;;;;;;8.10;99.90;;;;;;5031554;28;19929;-82
2022/05/04 00:55:39;;;;;;;;;;;8.10;99.90;;;;;;5020156;28;19932;-77
2022/05/04 01:00:51;;;;;;;;;;;8.00;99.90;;;;;;5016333;28;19937;-77
2022/05/04 01:03:18;;;;;;;;;;;8.10;99.90;;;;;;5045379;28;19924;-78
2022/05/04 01:05:44;;;;;;;;;;;8.20;99.90;;;;;;5047160;28;20016;-78
2022/05/04 01:08:11;;;;;;;;;;;8.20;99.90;;;;;;5020010;28;19991;-78
2022/05/04 01:10:37;;;;;;;;;;;8.30;99.90;;;;;;5041990;28;20015;-77
2022/05/04 01:13:04;;;;;;;;;;;8.30;99.90;;;;;;5037442;28;19936;-77
2022/05/04 01:15:30;;;;;;;;;;;8.20;99.90;;;;;;5038250;28;20273;-78
2022/05/04 01:17:57;;;;;;;;;;;8.10;99.90;;;;;;5030156;28;19925;-77
2022/05/04 01:20:24;;;;;;;;;;;8.10;99.90;;;;;;5029721;28;19925;-77
2022/05/04 01:22:51;;;;;;;;;;;8.10;99.90;;;;;;5030312;28;19929;-77
2022/05/04 01:25:17;;;;;;;;;;;8.10;99.90;;;;;;5026434;28;19925;-79
2022/05/04 01:27:44;;;;;;;;;;;8.10;99.90;;;;;;5042038;28;19925;-78
2022/05/04 01:30:11;;;;;;;;;;;8.10;99.90;;;;;;5051565;28;19932;-77
2022/05/04 01:32:38;;;;;;;;;;;8.10;99.90;;;;;;5033425;28;20007;-78
2022/05/04 01:35:04;;;;;;;;;;;8.10;99.90;;;;;;5034173;28;20381;-78
2022/05/04 01:37:31;;;;;;;;;;;8.10;99.90;;;;;;5063990;28;19925;-79
2022/05/04 01:39:57;;;;;;;;;;;8.10;99.90;;;;;;5021836;28;19925;-78
2022/05/04 01:42:24;;;;;;;;;;;8.10;99.90;;;;;;5025792;28;19932;-78
2022/05/04 01:44:51;;;;;;;;;;;8.10;99.90;;;;;;5047350;28;20463;-77
2022/05/04 01:47:17;;;;;;;;;;;8.10;99.90;;;;;;5032925;28;19972;-82
2022/05/04 01:49:44;;;;;;;;;;;8.10;99.90;;;;;;5049813;28;19925;-77
2022/05/04 01:52:10;;;;;;;;;;;8.20;99.90;;;;;;5030558;28;19932;-78
2022/05/04 01:54:37;;;;;;;;;;;8.10;99.90;;;;;;5032341;28;19925;-78
2022/05/04 01:57:03;;;;;;;;;;;8.20;99.90;;;;;;5032913;28;19931;-77
2022/05/04 01:59:30;;;;;;;;;;;8.10;99.90;;;;;;5029988;28;19932;-77
2022/05/04 02:01:57;;;;;;;;;;;8.10;99.90;;;;;;5024405;28;19924;-77
2022/05/04 02:04:23;;;;;;;;;;;8.10;99.90;;;;;;5052678;28;19925;-78
2022/05/04 02:06:50;;;;;;;;;;;8.10;99.90;;;;;;5043496;28;19925;-78
2022/05/04 02:09:17;;;;;;;;;;;8.10;99.90;;;;;;5037248;28;19929;-78
2022/05/04 02:11:43;;;;;;;;;;;8.10;99.90;;;;;;5027635;28;20375;-77
2022/05/04 02:14:10;;;;;;;;;;;8.10;99.90;;;;;;5050791;28;19928;-78
2022/05/04 02:16:37;;;;;;;;;;;8.10;99.90;;;;;;5042169;28;20368;-79
2022/05/04 02:19:03;;;;;;;;;;;8.00;99.90;;;;;;5037574;28;19925;-78
2022/05/04 02:21:30;;;;;;;;;;;8.00;99.90;;;;;;5037181;28;20307;-79
2022/05/04 02:23:56;;;;;;;;;;;8.00;99.90;;;;;;5036939;28;19947;-79
2022/05/04 02:26:23;;;;;;;;;;;8.00;99.90;;;;;;5052584;28;19935;-79
2022/05/04 02:28:49;;;;;;;;;;;8.00;99.90;;;;;;5051012;28;19929;-78
2022/05/04 02:31:16;;;;;;;;;;;8.00;99.90;;;;;;5024209;28;19925;-79
2022/05/04 02:33:44;;;;;;;;;;;8.00;99.90;;;;;;5035253;28;19933;-78
2022/05/04 02:38:55;;;;;;;;;;;8.10;99.90;;;;;;5031960;28;19933;-77
2022/05/04 02:41:21;;;;;;;;;;;8.10;99.90;;;;;;5047045;28;19925;-79
2022/05/04 02:43:48;;;;;;;;;;;8.00;99.90;;;;;;5037160;28;19925;-76
2022/05/04 02:46:14;;;;;;;;;;;8.00;99.90;;;;;;5036502;28;19925;-77
2022/05/04 02:48:41;;;;;;;;;;;8.00;99.90;;;;;;5026291;28;19935;-77
2022/05/04 02:51:07;;;;;;;;;;;8.00;99.90;;;;;;5035169;28;19925;-76
2022/05/04 02:53:34;;;;;;;;;;;8.00;99.90;;;;;;5034948;28;19924;-77
2022/05/04 02:56:01;;;;;;;;;;;8.00;99.90;;;;;;5027658;28;19933;-77
2022/05/04 02:58:27;;;;;;;;;;;8.00;99.90;;;;;;5052382;28;19928;-77
2022/05/04 03:00:54;;;;;;;;;;;8.00;99.90;;;;;;5043488;28;19931;-76
2022/05/04 03:03:20;;;;;;;;;;;8.10;99.90;;;;;;5053759;28;19925;-77
2022/05/04 03:05:46;;;;;;;;;;;8.10;99.90;;;;;;5024784;28;20045;-77
2022/05/04 03:08:13;;;;;;;;;;;8.20;99.90;;;;;;5040522;28;19929;-76
2022/05/04 03:13:20;;;;;;;;;;;8.20;99.90;;;;;;5029803;28;20017;-78
2022/05/04 03:15:46;;;;;;;;;;;8.10;99.90;;;;;;5029252;28;19925;-78
2022/05/04 03:18:13;;;;;;;;;;;8.00;99.90;;;;;;5027247;28;19929;-77
2022/05/04 03:20:39;;;;;;;;;;;7.80;99.90;;;;;;5012442;28;20365;-79
2022/05/04 03:23:06;;;;;;;;;;;7.80;99.90;;;;;;5002481;28;20399;-77
2022/05/04 03:25:32;;;;;;;;;;;7.70;99.90;;;;;;5012578;28;20361;-78
2022/05/04 03:27:59;;;;;;;;;;;7.70;99.90;;;;;;5009161;28;19930;-77
2022/05/04 03:30:25;;;;;;;;;;;7.90;99.90;;;;;;4998175;28;19930;-82
2022/05/04 03:32:52;;;;;;;;;;;7.90;99.90;;;;;;5005885;28;20380;-78
2022/05/04 03:35:19;;;;;;;;;;;7.80;99.90;;;;;;5012658;28;19925;-77
2022/05/04 03:37:45;;;;;;;;;;;7.90;99.90;;;;;;5003945;28;19984;-78
2022/05/04 03:40:13;;;;;;;;;;;7.90;99.90;;;;;;5010789;28;19925;-78
2022/05/04 03:42:39;;;;;;;;;;;7.80;99.90;;;;;;5002912;28;19975;-77
2022/05/04 03:45:06;;;;;;;;;;;7.70;99.90;;;;;;5013496;28;20400;-78
2022/05/04 03:47:32;;;;;;;;;;;7.70;99.90;;;;;;5004050;28;20013;-79
2022/05/04 03:49:59;;;;;;;;;;;7.70;99.90;;;;;;5012542;28;19926;-78
2022/05/04 03:52:25;;;;;;;;;;;7.70;99.90;;;;;;5011858;28;20396;-81
2022/05/04 03:54:52;;;;;;;;;;;7.70;99.90;;;;;;5001817;28;19975;-78
2022/05/04 03:57:19;;;;;;;;;;;7.70;99.90;;;;;;5012480;28;19929;-79
2022/05/04 03:59:45;;;;;;;;;;;7.70;99.90;;;;;;5005964;28;19932;-79
2022/05/04 04:02:12;;;;;;;;;;;7.80;99.90;;;;;;5001943;28;19926;-78
2022/05/04 04:04:38;;;;;;;;;;;7.70;99.90;;;;;;5002518;28;19964;-78
2022/05/04 04:07:05;;;;;;;;;;;7.80;99.90;;;;;;5007685;28;19925;-78
2022/05/04 04:09:31;;;;;;;;;;;7.80;99.90;;;;;;5010217;28;19932;-79
2022/05/04 04:11:58;;;;;;;;;;;7.90;99.90;;;;;;5012301;28;19925;-79
2022/05/04 04:14:24;;;;;;;;;;;7.70;99.90;;;;;;5011831;28;19930;-77
2022/05/04 04:16:51;;;;;;;;;;;7.70;99.90;;;;;;5012532;28;19929;-77
2022/05/04 04:19:17;;;;;;;;;;;7.70;99.90;;;;;;5002846;28;19925;-78
2022/05/04 04:21:53;;;;;;;;;;;7.70;99.90;;;;;;5002162;28;20289;-79
2022/05/04 04:24:19;;;;;;;;;;;7.70;99.90;;;;;;5005806;28;19932;-78
2022/05/04 04:26:46;;;;;;;;;;;7.80;99.90;;;;;;5006426;28;20360;-78
2022/05/04 04:29:13;;;;;;;;;;;7.80;99.90;;;;;;5000610;28;19940;-78
2022/05/04 04:31:39;;;;;;;;;;;7.80;99.90;;;;;;5001697;28;19983;-77
2022/05/04 04:34:07;;;;;;;;;;;7.80;99.90;;;;;;4997044;28;19932;-76
2022/05/04 04:36:34;;;;;;;;;;;7.80;99.90;;;;;;5012178;28;19925;-79
2022/05/04 04:39:00;;;;;;;;;;;7.80;99.90;;;;;;5010378;28;19930;-78
2022/05/04 04:41:27;;;;;;;;;;;7.80;99.90;;;;;;5008255;28;19933;-78
2022/05/04 04:43:53;;;;;;;;;;;7.80;99.90;;;;;;5003428;28;19930;-79
2022/05/04 04:46:20;;;;;;;;;;;7.80;99.90;;;;;;5011857;28;19925;-77
2022/05/04 04:48:46;;;;;;;;;;;7.90;99.90;;;;;;5010888;28;19926;-78
2022/05/04 04:51:13;;;;;;;;;;;7.90;99.90;;;;;;5011335;28;20001;-79
2022/05/04 04:53:40;;;;;;;;;;;7.90;99.90;;;;;;5012742;28;19929;-78
2022/05/04 04:56:06;;;;;;;;;;;7.90;99.90;;;;;;5012283;28;19932;-77
2022/05/04 04:58:33;;;;;;;;;;;7.90;99.90;;;;;;5012730;28;19933;-82
2022/05/04 05:00:59;;;;;;;;;;;7.90;99.90;;;;;;5012304;28;19932;-78
2022/05/04 05:03:26;;;;;;;;;;;7.90;99.90;;;;;;5019553;28;20020;-78
2022/05/04 05:05:52;;;;;;;;;;;8.00;99.90;;;;;;5019717;28;19925;-78
2022/05/04 05:08:19;;;;;;;;;;;8.00;99.90;;;;;;5027578;28;19929;-78
2022/05/04 05:10:45;;;;;;;;;;;8.00;99.90;;;;;;5019558;28;19933;-77
2022/05/04 05:13:12;;;;;;;;;;;8.00;99.90;;;;;;5020998;28;19933;-78
2022/05/04 05:18:23;;;;;;;;;;;8.10;99.90;;;;;;5021075;28;20022;-78
2022/05/04 05:20:49;;;;;;;;;;;8.10;99.90;;;;;;5018122;28;19925;-78
2022/05/04 05:23:16;;;;;;;;;;;8.10;99.90;;;;;;5017914;28;19925;-78
2022/05/04 05:25:43;;;;;;;;;;;8.10;99.90;;;;;;5017657;28;19933;-80
2022/05/04 05:28:09;;;;;;;;;;;8.20;99.90;;;;;;5018893;28;19936;-80
2022/05/04 05:30:36;;;;;;;;;;;8.20;99.90;;;;;;5022512;28;19925;-83
2022/05/04 05:33:02;;;;;;;;;;;8.20;99.90;;;;;;5021656;28;19926;-78
2022/05/04 05:35:29;;;;;;;;;;;8.20;99.90;;;;;;5022576;28;19933;-80
2022/05/04 05:37:56;;;;;;;;;;;8.30;99.90;;;;;;5021547;28;19932;-79
2022/05/04 05:40:22;;;;;;;;;;;8.30;99.90;;;;;;5019381;28;19933;-79
2022/05/04 05:42:49;;;;;;;;;;;8.40;99.90;;;;;;5021147;28;19929;-79
2022/05/04 05:45:16;;;;;;;;;;;8.40;99.90;;;;;;5025863;28;19936;-79
2022/05/04 05:47:42;;;;;;;;;;;8.40;99.90;;;;;;5023722;28;19929;-79
2022/05/04 05:50:10;;;;;;;;;;;8.50;99.90;;;;;;5026977;28;19925;-78
2022/05/04 05:52:36;;;;;;;;;;;8.50;99.90;;;;;;5028262;28;20450;-83
2022/05/04 05:55:03;;;;;;;;;;;8.50;99.90;;;;;;5020927;28;20388;-80
2022/05/04 05:57:29;;;;;;;;;;;8.50;99.90;;;;;;5025937;28;20089;-78
2022/05/04 05:59:56;;;;;;;;;;;8.50;99.90;;;;;;5027928;28;19930;-78
2022/05/04 06:02:22;;;;;;;;;;;8.60;99.90;;;;;;5023142;28;19933;-77
2022/05/04 06:04:49;;;;;;;;;;;8.60;99.90;;;;;;5026828;28;19936;-78
2022/05/04 06:07:16;;;;;;;;;;;8.60;99.90;;;;;;5026309;28;19925;-78
2022/05/04 06:09:42;;;;;;;;;;;8.70;99.90;;;;;;5016984;28;19932;-78
2022/05/04 06:12:09;;;;;;;;;;;8.70;99.90;;;;;;5020638;28;19947;-78
2022/05/04 06:14:35;;;;;;;;;;;8.70;99.90;;;;;;5022959;28;20024;-79
2022/05/04 06:17:02;;;;;;;;;;;8.70;99.90;;;;;;5024412;28;19933;-78
2022/05/04 06:19:28;;;;;;;;;;;8.80;99.90;;;;;;5029690;28;19992;-77
2022/05/04 06:21:55;;;;;;;;;;;8.80;99.90;;;;;;5023090;28;19944;-78
2022/05/04 06:24:21;;;;;;;;;;;8.90;99.90;;;;;;5019588;28;19925;-78
2022/05/04 06:26:48;;;;;;;;;;;8.80;99.90;;;;;;5017626;28;20281;-78
2022/05/04 06:29:14;;;;;;;;;;;8.90;99.90;;;;;;5019844;28;20273;-77
2022/05/04 06:34:25;;;;;;;;;;;9.00;99.90;;;;;;5012269;28;19950;-78
2022/05/04 06:36:52;;;;;;;;;;;9.00;99.90;;;;;;5017039;28;20434;-78
2022/05/04 06:39:19;;;;;;;;;;;9.00;99.90;;;;;;5026523;28;19925;-78
2022/05/04 06:41:45;;;;;;;;;;;9.00;99.90;;;;;;5029888;28;20300;-78
2022/05/04 06:44:12;;;;;;;;;;;9.00;99.90;;;;;;5021435;28;20365;-78
2022/05/04 06:46:41;;;;;;;;;;;9.00;99.90;;;;;;5029103;28;19925;-79
2022/05/04 06:49:08;;;;;;;;;;;9.10;99.90;;;;;;5024382;28;20296;-78
2022/05/04 06:51:35;;;;;;;;;;;9.00;99.90;;;;;;5021700;28;19925;-79
2022/05/04 06:54:01;;;;;;;;;;;9.10;99.80;;;;;;5022658;28;20799;-77
2022/05/04 06:56:28;;;;;;;;;;;9.20;99.90;;;;;;5023841;28;19925;-78
2022/05/04 06:58:54;;;;;;;;;;;9.20;99.90;;;;;;5027346;28;19984;-78
2022/05/04 07:01:21;;;;;;;;;;;9.30;99.70;;;;;;5022663;28;20289;-78
2022/05/04 07:03:47;;;;;;;;;;;9.30;99.90;;;;;;5016800;28;20357;-79
2022/05/04 07:06:14;;;;;;;;;;;9.40;99.90;;;;;;5024548;28;20284;-78
2022/05/04 07:08:41;;;;;;;;;;;9.40;99.70;;;;;;5020169;28;19940;-78
2022/05/04 07:11:07;;;;;;;;;;;9.40;99.60;;;;;;5016386;28;19968;-78
2022/05/04 07:13:34;;;;;;;;;;;9.50;99.80;;;;;;5022613;28;20258;-77
2022/05/04 07:16:00;;;;;;;;;;;9.50;99.80;;;;;;5023043;28;19931;-78
2022/05/04 07:18:27;;;;;;;;;;;9.50;99.50;;;;;;5027939;28;19925;-78
2022/05/04 07:20:53;;;;;;;;;;;9.50;99.40;;;;;;5013401;28;19929;-77
2022/05/04 07:23:20;;;;;;;;;;;9.60;99.60;;;;;;5017580;28;19932;-79
2022/05/04 07:25:47;;;;;;;;;;;9.60;99.60;;;;;;5021425;28;19925;-83
2022/05/04 07:28:13;;;;;;;;;;;9.70;99.10;;;;;;5017522;28;20020;-78
2022/05/04 07:30:40;;;;;;;;;;;9.70;98.40;;;;;;5013953;28;19941;-78
2022/05/04 07:33:06;;;;;;;;;;;9.70;98.50;;;;;;5010187;28;19921;-79
2022/05/04 07:35:33;;;;;;;;;;;9.70;98.60;;;;;;5016671;28;19926;-78
2022/05/04 07:37:59;;;;;;;;;;;9.70;99.10;;;;;;5025509;28;20024;-78
2022/05/04 07:43:10;;;;;;;;;;;9.80;99.10;;;;;;5020227;28;19928;-78
2022/05/04 07:45:37;;;;;;;;;;;9.80;98.40;;;;;;5019657;28;19925;-78
2022/05/04 07:48:03;;;;;;;;;;;9.90;99.00;;;;;;5010744;28;19976;-77
2022/05/04 07:50:30;;;;;;;;;;;9.90;98.00;;;;;;5018092;28;19933;-79
2022/05/04 07:52:56;;;;;;;;;;;10.00;99.10;;;;;;5024197;28;19932;-79
2022/05/04 07:55:23;;;;;;;;;;;10.00;98.50;;;;;;5021237;28;19940;-79
2022/05/04 07:57:50;;;;;;;;;;;10.10;98.50;;;;;;5010140;28;19932;-82
2022/05/04 08:05:46;;;;;;;;;;;10.20;97.70;;;;;;4998996;28;19929;-79
2022/05/04 08:08:12;;;;;;;;;;;10.10;96.70;;;;;;5011442;28;20270;-78
2022/05/04 08:10:40;;;;;;;;;;;10.20;97.10;;;;;;5014658;28;19925;-79
2022/05/04 08:13:06;;;;;;;;;;;10.30;98.80;;;;;;5027952;28;20047;-79
2022/05/04 08:15:33;;;;;;;;;;;10.30;98.20;;;;;;5017472;28;19925;-79
2022/05/04 08:18:01;;;;;;;;;;;10.40;97.70;;;;;;5013231;28;19933;-82
2022/05/04 08:20:28;;;;;;;;;;;10.30;97.50;;;;;;5031389;28;19925;-81
2022/05/04 08:22:55;;;;;;;;;;;10.40;97.80;;;;;;5032681;28;19963;-82
2022/05/04 08:25:22;;;;;;;;;;;10.60;97.00;;;;;;5034459;28;19925;-81
2022/05/04 08:27:48;;;;;;;;;;;10.60;96.80;;;;;;5031920;28;19925;-82
2022/05/04 08:30:15;;;;;;;;;;;10.50;95.70;;;;;;5030930;28;19924;-85
2022/05/04 08:32:42;;;;;;;;;;;10.50;96.20;;;;;;5019309;28;19973;-83
2022/05/04 08:35:09;;;;;;;;;;;10.50;96.00;;;;;;5036357;28;19925;-83
2022/05/04 08:37:37;;;;;;;;;;;10.40;96.10;;;;;;5033835;28;19976;-82
2022/05/04 08:40:03;;;;;;;;;;;10.60;95.20;;;;;;5034050;28;20008;-82
2022/05/04 08:42:30;;;;;;;;;;;10.60;95.30;;;;;;5029861;28;19925;-82
2022/05/04 08:44:58;;;;;;;;;;;10.60;95.60;;;;;;5029800;28;20008;-82
2022/05/04 08:47:24;;;;;;;;;;;10.50;95.80;;;;;;5021768;28;19929;-81
2022/05/04 08:49:51;;;;;;;;;;;10.60;95.30;;;;;;5034153;28;19936;-86
2022/05/04 08:52:17;;;;;;;;;;;10.50;95.20;;;;;;5020567;28;20281;-82
2022/05/04 08:54:44;;;;;;;;;;;10.60;95.80;;;;;;5042636;28;20001;-82
2022/05/04 08:57:10;;;;;;;;;;;10.70;95.70;;;;;;5034022;28;19925;-83
2022/05/04 08:59:37;;;;;;;;;;;10.70;95.10;;;;;;5033522;28;19925;-82
2022/05/04 09:02:04;;;;;;;;;;;10.80;94.70;;;;;;5050836;28;19971;-82
2022/05/04 09:04:31;;;;;;;;;;;10.70;94.40;;;;;;5034714;28;19925;-82
2022/05/04 09:07:00;;;;;;;;;;;10.80;94.70;;;;;;5028923;28;20327;-82
2022/05/04 09:09:27;;;;;;;;;;;10.80;94.70;;;;;;5045334;28;19929;-83
2022/05/04 09:11:53;;;;;;;;;;;10.90;95.10;;;;;;5037290;28;20013;-87
2022/05/04 09:14:25;;;;;;;;;;;11.00;95.30;;;;;;5046611;28;19931;-83
2022/05/04 09:16:52;;;;;;;;;;;11.00;93.70;;;;;;5029852;28;19928;-84
2022/05/04 09:19:18;;;;;;;;;;;11.20;94.90;;;;;;5044621;28;19924;-82
2022/05/04 09:21:46;;;;;;;;;;;11.00;94.80;;;;;;5044811;28;19925;-83
2022/05/04 09:24:13;;;;;;;;;;;11.10;99.60;;;;;;5041749;28;20056;-84
2022/05/04 09:26:40;;;;;;;;;;;11.20;98.50;;;;;;5045724;28;19925;-84
2022/05/04 09:29:06;;;;;;;;;;;11.40;97.70;;;;;;5044039;28;19963;-84
2022/05/04 09:31:33;;;;;;;;;;;11.40;95.60;;;;;;5035912;28;19925;-84
2022/05/04 09:33:59;;;;;;;;;;;11.30;94.60;;;;;;5016628;28;19932;-84
2022/05/04 09:36:26;;;;;;;;;;;11.40;94.20;;;;;;5032806;28;19928;-83
2022/05/04 09:47:05;;;;;;;;;;;11.60;96.20;;;;;;5037306;28;19932;-86
2022/05/04 09:49:33;;;;;;;;;;;11.90;94.20;;;;;;5038331;28;19948;-86
2022/05/04 09:52:00;;;;;;;;;;;11.90;95.20;;;;;;5049986;28;19929;-85
2022/05/04 09:54:27;;;;;;;;;;;11.80;92.40;;;;;;5039780;28;19932;-85
2022/05/04 09:56:53;;;;;;;;;;;11.90;93.70;;;;;;5042868;28;19929;-84
2022/05/04 09:59:20;;;;;;;;;;;11.90;95.00;;;;;;5034566;28;19929;-84
2022/05/04 10:01:47;;;;;;;;;;;12.00;94.10;;;;;;5044277;28;19925;-82
2022/05/04 10:04:13;;;;;;;;;;;12.10;94.60;;;;;;5030604;28;19968;-84
2022/05/04 10:06:40;;;;;;;;;;;12.10;94.50;;;;;;5026087;28;20258;-84
2022/05/04 10:09:06;;;;;;;;;;;12.00;92.40;;;;;;5032208;28;20295;-86
2022/05/04 10:11:33;;;;;;;;;;;12.10;92.00;;;;;;5057584;28;20302;-85
2022/05/04 10:13:59;;;;;;;;;;;12.20;94.80;;;;;;5041647;28;20015;-86
2022/05/04 10:16:26;;;;;;;;;;;12.40;94.20;;;;;;5046481;28;19935;-82
2022/05/04 10:18:53;;;;;;;;;;;12.50;92.50;;;;;;5045391;28;19982;-85
2022/05/04 10:21:19;;;;;;;;;;;12.80;91.70;;;;;;5037934;28;20011;-84
2022/05/04 10:23:46;;;;;;;;;;;12.70;90.90;;;;;;5046694;28;19947;-84
2022/05/04 10:26:13;;;;;;;;;;;12.40;92.30;;;;;;5036095;28;20360;-84
2022/05/04 10:28:39;;;;;;;;;;;12.40;91.30;;;;;;5034298;28;19925;-84
2022/05/04 10:31:05;;;;;;;;;;;12.50;92.70;;;;;;5029430;28;19936;-84
2022/05/04 10:33:32;;;;;;;;;;;12.80;91.70;;;;;;5037047;28;19925;-84
2022/05/04 10:35:58;;;;;;;;;;;13.00;91.40;;;;;;5053799;28;19933;-80
2022/05/04 10:38:25;;;;;;;;;;;13.00;92.20;;;;;;5053711;28;19931;-82
2022/05/04 10:40:52;;;;;;;;;;;13.20;92.40;;;;;;5040245;28;19926;-82
2022/05/04 10:43:18;;;;;;;;;;;13.30;90.50;;;;;;5036129;28;20758;-80
2022/05/04 10:45:45;;;;;;;;;;;13.40;91.30;;;;;;5030721;28;19925;-82
2022/05/04 10:48:11;;;;;;;;;;;13.50;90.50;;;;;;5038165;28;19925;-82
2022/05/04 10:50:38;;;;;;;;;;;13.50;90.30;;;;;;5033150;28;19925;-82
2022/05/04 10:53:04;;;;;;;;;;;13.50;90.50;;;;;;5027653;28;20325;-83
2022/05/04 10:55:31;;;;;;;;;;;13.70;91.50;;;;;;5034623;28;19925;-81
2022/05/04 10:57:57;;;;;;;;;;;13.80;89.30;;;;;;5052156;28;19925;-82
2022/05/04 11:00:24;;;;;;;;;;;14.00;89.20;;;;;;5034721;28;19925;-81
2022/05/04 11:02:51;;;;;;;;;;;14.20;86.90;;;;;;5036521;28;20011;-81
2022/05/04 11:05:18;;;;;;;;;;;14.10;85.70;;;;;;5027132;28;20383;-81
2022/05/04 11:07:44;;;;;;;;;;;14.20;85.20;;;;;;5028153;28;19979;-81
2022/05/04 11:10:11;;;;;;;;;;;13.90;84.50;;;;;;5045872;28;19940;-81
2022/05/04 11:12:37;;;;;;;;;;;13.90;88.60;;;;;;5035649;28;20360;-82
2022/05/04 11:15:04;;;;;;;;;;;14.10;89.00;;;;;;5035273;28;20411;-87
2022/05/04 11:17:31;;;;;;;;;;;14.30;84.80;;;;;;5038789;28;19924;-81
2022/05/04 11:19:57;;;;;;;;;;;14.40;82.20;;;;;;5028578;28;19925;-82
2022/05/04 11:22:24;;;;;;;;;;;14.30;87.50;;;;;;5029729;28;19926;-82
2022/05/04 11:24:50;;;;;;;;;;;14.20;85.20;;;;;;5033170;28;19924;-82
2022/05/04 11:27:17;;;;;;;;;;;14.10;83.90;;;;;;5052558;28;19928;-81
2022/05/04 11:29:44;;;;;;;;;;;14.30;82.40;;;;;;5028957;28;20258;-82
2022/05/04 11:32:10;;;;;;;;;;;14.30;82.40;;;;;;5029285;28;19983;-82
2022/05/04 11:34:37;;;;;;;;;;;14.30;82.50;;;;;;5028298;28;19929;-82
2022/05/04 11:37:04;;;;;;;;;;;14.20;79.40;;;;;;5032352;28;20372;-82
2022/05/04 11:39:30;;;;;;;;;;;14.10;81.20;;;;;;5034792;28;19925;-82
2022/05/04 11:41:57;;;;;;;;;;;14.00;80.50;;;;;;5034387;28;19936;-82
2022/05/04 11:44:23;;;;;;;;;;;14.00;81.50;;;;;;5031918;28;20361;-83
2022/05/04 11:46:50;;;;;;;;;;;14.30;82.30;;;;;;5029826;28;19948;-82
2022/05/04 11:49:17;;;;;;;;;;;14.40;79.30;;;;;;5045975;28;19935;-83
2022/05/04 11:51:43;;;;;;;;;;;14.40;85.10;;;;;;5034130;28;19926;-82
2022/05/04 11:54:10;;;;;;;;;;;14.60;82.50;;;;;;5034736;28;19925;-83
2022/05/04 11:56:36;;;;;;;;;;;14.80;81.20;;;;;;5035037;28;19929;-82
2022/05/04 11:59:03;;;;;;;;;;;14.60;79.40;;;;;;5060244;28;19932;-82
2022/05/04 12:01:29;;;;;;;;;;;14.50;80.10;;;;;;5047134;28;19935;-83
2022/05/04 12:03:56;;;;;;;;;;;14.50;77.60;;;;;;5029375;28;19925;-80
2022/05/04 12:06:22;;;;;;;;;;;14.40;80.40;;;;;;5029156;28;19931;-81
2022/05/04 12:08:49;;;;;;;;;;;14.70;78.20;;;;;;5041197;28;19924;-80
2022/05/04 12:11:15;;;;;;;;;;;14.60;77.10;;;;;;5029279;28;19925;-81
2022/05/04 12:13:42;;;;;;;;;;;14.50;79.50;;;;;;5033976;28;19950;-83
2022/05/04 12:16:09;;;;;;;;;;;14.80;79.20;;;;;;5032919;28;19978;-84
2022/05/04 12:18:35;;;;;;;;;;;14.90;75.60;;;;;;5032912;28;19924;-80
2022/05/04 12:21:04;;;;;;;;;;;15.00;77.00;;;;;;5011791;28;23221;-82
2022/05/04 12:23:30;;;;;;;;;;;15.00;77.10;;;;;;5002090;28;19926;-82
2022/05/04 12:25:57;;;;;;;;;;;14.90;77.80;;;;;;5007313;28;19929;-80
2022/05/04 12:28:23;;;;;;;;;;;14.80;77.90;;;;;;5010803;28;20000;-81
2022/05/04 12:33:34;;;;;;;;;;;14.70;80.50;;;;;;5006959;28;19926;-80
2022/05/04 12:36:00;;;;;;;;;;;14.80;79.90;;;;;;5016432;28;19925;-79
2022/05/04 12:38:27;;;;;;;;;;;14.80;79.20;;;;;;5019407;28;20384;-80
2022/05/04 12:40:53;;;;;;;;;;;15.00;79.90;;;;;;5021031;28;19924;-83
2022/05/04 12:43:21;;;;;;;;;;;15.20;83.60;;;;;;5013203;28;19932;-80
2022/05/04 12:45:48;;;;;;;;;;;15.50;78.70;;;;;;5005124;28;20349;-80
2022/05/04 12:48:14;;;;;;;;;;;15.50;76.50;;;;;;5005062;28;19932;-80
2022/05/04 12:50:41;;;;;;;;;;;15.10;77.20;;;;;;5008293;28;19925;-83
2022/05/04 12:53:07;;;;;;;;;;;14.90;78.30;;;;;;5005615;28;20288;-83
2022/05/04 12:58:18;;;;;;;;;;;15.20;77.20;;;;;;5012818;28;20386;-84
2022/05/04 13:00:45;;;;;;;;;;;15.50;76.70;;;;;;5013414;28;19926;-84
2022/05/04 13:03:12;;;;;;;;;;;15.60;76.40;;;;;;5011780;28;19925;-85
2022/05/04 13:05:39;;;;;;;;;;;15.40;75.30;;;;;;5009537;28;19926;-84
2022/05/04 13:08:05;;;;;;;;;;;15.30;77.30;;;;;;5001426;28;19925;-84
2022/05/04 13:10:32;;;;;;;;;;;15.10;77.10;;;;;;5012011;28;19921;-82
2022/05/04 13:12:59;;;;;;;;;;;14.90;75.70;;;;;;5012097;28;19926;-81
2022/05/04 13:15:25;;;;;;;;;;;14.80;75.70;;;;;;5006978;28;19937;-81
2022/05/04 13:17:52;;;;;;;;;;;14.60;74.80;;;;;;5000840;28;19926;-81
2022/05/04 13:20:19;;;;;;;;;;;14.70;75.90;;;;;;5008299;28;19932;-82
2022/05/04 13:22:45;;;;;;;;;;;14.30;77.90;;;;;;5010661;28;19984;-82
2022/05/04 13:25:12;;;;;;;;;;;14.10;77.70;;;;;;5002581;28;19933;-84
2022/05/04 13:27:38;;;;;;;;;;;14.30;79.50;;;;;;5010504;28;19925;-82
2022/05/04 13:30:05;;;;;;;;;;;14.50;80.70;;;;;;5009909;28;19965;-82
2022/05/04 13:32:32;;;;;;;;;;;14.60;84.00;;;;;;4993696;28;19925;-85
2022/05/04 13:34:58;;;;;;;;;;;14.80;77.80;;;;;;5008056;28;19925;-85
2022/05/04 13:37:25;;;;;;;;;;;14.70;78.70;;;;;;5010697;28;20361;-86
2022/05/04 13:39:52;;;;;;;;;;;15.00;75.50;;;;;;5020677;28;19925;-83
2022/05/04 13:42:18;;;;;;;;;;;15.00;77.20;;;;;;5003599;28;19930;-85
2022/05/04 13:44:45;;;;;;;;;;;15.10;76.00;;;;;;5015061;28;19925;-84
2022/05/04 13:47:11;;;;;;;;;;;14.90;76.00;;;;;;5013281;28;19925;-84
2022/05/04 13:49:38;;;;;;;;;;;15.00;75.40;;;;;;5022997;28;19925;-84
2022/05/04 13:54:49;;;;;;;;;;;14.80;78.40;;;;;;5014076;28;20357;-84
2022/05/04 13:57:16;;;;;;;;;;;15.00;79.90;;;;;;5014317;28;19925;-86
2022/05/04 13:59:42;;;;;;;;;;;15.10;76.80;;;;;;5003821;28;20396;-83
2022/05/04 14:02:09;;;;;;;;;;;15.30;75.60;;;;;;5011300;28;20391;-84
2022/05/04 14:04:37;;;;;;;;;;;15.30;76.00;;;;;;5011467;28;19925;-84
2022/05/04 14:07:03;;;;;;;;;;;15.10;75.40;;;;;;5014391;28;19926;-83
2022/05/04 14:09:32;;;;;;;;;;;14.90;76.60;;;;;;5012114;28;19926;-83
2022/05/04 14:11:59;;;;;;;;;;;14.90;76.20;;;;;;5014371;28;19925;-87
2022/05/04 14:17:10;;;;;;;;;;;14.90;77.10;;;;;;5005858;28;19925;-84
2022/05/04 14:19:37;;;;;;;;;;;14.20;77.90;;;;;;5022300;28;20409;-84
2022/05/04 14:22:03;;;;;;;;;;;14.00;78.00;;;;;;5036835;28;19931;-84
2022/05/04 14:24:30;;;;;;;;;;;14.40;79.70;;;;;;5017110;28;20381;-85
2022/05/04 14:26:56;;;;;;;;;;;14.50;78.60;;;;;;5031287;28;19929;-83
2022/05/04 14:29:23;;;;;;;;;;;14.40;80.30;;;;;;5032384;28;19929;-86
2022/05/04 14:31:50;;;;;;;;;;;14.40;79.50;;;;;;5028724;28;20376;-82
2022/05/04 14:34:16;;;;;;;;;;;14.30;78.80;;;;;;5019399;28;19967;-84
2022/05/04 14:36:43;;;;;;;;;;;14.40;80.10;;;;;;5028918;28;19929;-84
2022/05/04 14:39:10;;;;;;;;;;;14.50;81.60;;;;;;5013011;28;19930;-85
2022/05/04 14:41:36;;;;;;;;;;;14.60;80.60;;;;;;5017332;28;19929;-84
2022/05/04 14:44:03;;;;;;;;;;;15.10;79.30;;;;;;5019193;28;20391;-85
2022/05/04 14:46:29;;;;;;;;;;;15.20;77.20;;;;;;5024516;28;20019;-84
2022/05/04 14:48:56;;;;;;;;;;;15.40;77.00;;;;;;5028828;28;19924;-84
2022/05/04 14:51:22;;;;;;;;;;;15.40;77.00;;;;;;5024018;28;19944;-86
2022/05/04 14:53:52;;;;;;;;;;;15.30;77.00;;;;;;5025776;28;19929;-84
2022/05/04 14:56:18;;;;;;;;;;;15.30;77.80;;;;;;5038969;28;20027;-84
2022/05/04 14:58:45;;;;;;;;;;;15.50;77.30;;;;;;5017335;28;19929;-84
2022/05/04 15:01:11;;;;;;;;;;;15.50;75.60;;;;;;5019769;28;19929;-84